createdAt,value
2023-03-02T00:01:51.305Z,51.00
2023-03-02T00:27:48.640Z,85.20
2023-03-02T00:32:18.025Z,40.60
2023-03-02T00:36:28.517Z,45.40
2023-03-02T00:54:48.731Z,69.30
2023-03-02T00:59:17.880Z,64.70
2023-03-02T01:16:31.375Z,31.40
2023-03-02T01:21:01.052Z,35.70
2023-03-02T01:25:11.136Z,31.30
2023-03-02T01:33:17.512Z,36.70
2023-03-02T01:37:38.850Z,28.90
2023-03-02T01:42:07.637Z,42.90
2023-03-02T01:46:21.728Z,39.50
2023-03-02T01:50:45.495Z,23.30
2023-03-02T02:24:43.552Z,49.60
2023-03-02T02:29:08.124Z,46.20
2023-03-02T02:33:37.240Z,35.80
2023-03-02T02:38:21.488Z,18.70
2023-03-02T02:43:02.546Z,23.50
2023-03-02T02:47:32.132Z,24.90
2023-03-02T02:52:01.483Z,18.90
2023-03-02T02:56:30.656Z,33.30
2023-03-02T03:00:51.148Z,23.20
2023-03-02T03:27:56.877Z,18.60
2023-03-02T03:32:26.050Z,25.30
2023-03-02T03:36:57.393Z,15.20
2023-03-02T03:59:12.945Z,20.90
2023-03-02T04:03:53.129Z,24.90
2023-03-02T04:08:21.986Z,24.30
2023-03-02T04:12:44.156Z,21.60
2023-03-02T04:38:29.802Z,22.20
2023-03-02T04:42:59.306Z,22.70
2023-03-02T04:47:19.952Z,21.80
2023-03-02T04:51:48.330Z,23.80
2023-03-02T05:17:18.291Z,17.20
2023-03-02T05:21:47.908Z,22.40
2023-03-02T05:25:54.567Z,19.60
2023-03-02T05:30:23.057Z,19.50
2023-03-02T05:34:16.401Z,28.50
2023-03-02T05:37:10.878Z,50.20
2023-03-02T05:39:54.223Z,28.20
2023-03-02T05:43:43.637Z,24.50
2023-03-02T06:14:28.923Z,26.10
2023-03-02T06:18:03.824Z,29.60
2023-03-02T06:21:56.644Z,49.40
2023-03-02T06:25:30.659Z,69.60
2023-03-02T06:28:58.939Z,29.60
2023-03-02T06:33:06.528Z,23.50
2023-03-02T06:36:42.854Z,26.40
2023-03-02T06:40:07.429Z,21.40
2023-03-02T06:43:35.637Z,25.50
2023-03-02T06:47:11.982Z,34.40
2023-03-02T06:51:24.302Z,32.60
2023-03-02T06:54:33.389Z,42.20
2023-03-02T06:57:09.203Z,27.70
2023-03-02T07:01:10.734Z,28.00
2023-03-02T07:05:10.036Z,23.70
2023-03-02T07:13:01.001Z,25.90
2023-03-02T07:16:16.810Z,20.70
2023-03-02T07:19:42.051Z,21.50
2023-03-02T07:24:02.522Z,37.80
2023-03-02T07:28:05.432Z,36.80
2023-03-02T07:32:27.156Z,29.80
2023-03-02T08:03:51.093Z,37.40
2023-03-02T08:08:10.610Z,27.80
2023-03-02T08:12:34.141Z,27.00
2023-03-02T08:37:39.193Z,23.10
2023-03-02T08:41:44.264Z,24.10
2023-03-02T08:46:14.868Z,35.20
2023-03-02T09:16:40.455Z,19.10
2023-03-02T09:20:44.295Z,19.90
2023-03-02T09:25:12.176Z,17.90
2023-03-02T09:29:34.167Z,20.90
2023-03-02T09:33:57.204Z,17.40
2023-03-02T09:42:43.801Z,22.30
2023-03-02T10:23:05.595Z,23.10
2023-03-02T11:06:12.127Z,11.70
2023-03-02T11:10:42.388Z,10.10
2023-03-02T11:37:00.444Z,10.60
2023-03-02T11:41:28.866Z,12.50
2023-03-02T11:45:54.690Z,13.50
2023-03-02T11:50:16.973Z,14.70
2023-03-02T11:54:22.211Z,9.90
2023-03-02T12:02:54.715Z,11.60
2023-03-02T12:11:41.012Z,8.60
2023-03-02T12:16:03.471Z,10.00
2023-03-02T12:20:36.216Z,8.90
2023-03-02T12:25:11.334Z,10.40
2023-03-02T12:29:53.173Z,12.30
2023-03-02T12:34:25.407Z,7.60
2023-03-02T12:39:05.520Z,10.70
2023-03-02T12:43:36.715Z,9.60
2023-03-02T12:47:54.824Z,10.00
2023-03-02T12:52:19.382Z,10.50
2023-03-02T13:00:24.452Z,9.20
2023-03-02T13:53:28.769Z,11.40
2023-03-02T13:57:58.262Z,9.80
2023-03-02T14:02:11.122Z,9.60
2023-03-02T14:32:29.837Z,14.50
2023-03-02T14:36:50.507Z,12.50
2023-03-02T14:41:19.448Z,10.30
2023-03-02T14:50:11.574Z,11.20
2023-03-02T15:02:49.429Z,13.50
2023-03-02T15:07:18.920Z,11.10
2023-03-02T15:11:02.541Z,13.10
2023-03-02T15:15:31.862Z,12.60
2023-03-02T15:19:44.356Z,13.30
2023-03-02T16:22:35.691Z,28.60
2023-03-02T16:27:09.841Z,27.20
2023-03-02T16:31:48.159Z,25.00
2023-03-02T17:28:38.154Z,30.70
2023-03-02T17:33:08.867Z,30.10
2023-03-02T17:37:35.288Z,29.50
2023-03-02T17:41:59.352Z,33.10
2023-03-02T17:46:03.967Z,34.30
2023-03-02T17:50:33.505Z,33.50
2023-03-02T17:54:55.779Z,38.10
2023-03-02T18:19:21.446Z,43.90
2023-03-02T18:23:50.194Z,48.50
2023-03-02T18:28:19.899Z,47.00
2023-03-02T18:32:40.751Z,49.20
2023-03-02T18:36:55.788Z,47.20
2023-03-02T19:20:18.173Z,79.00
2023-03-02T19:24:40.794Z,68.50
2023-03-02T19:29:10.405Z,57.60
2023-03-02T19:33:42.894Z,52.90
2023-03-02T19:55:07.489Z,64.30
2023-03-02T19:59:36.770Z,56.00
2023-03-02T20:04:08.461Z,64.70
2023-03-02T20:33:58.719Z,73.40
2023-03-02T20:38:05.999Z,67.00
2023-03-02T20:42:28.378Z,67.80
2023-03-02T20:46:45.734Z,76.20
2023-03-02T20:51:14.969Z,79.50
2023-03-02T20:55:24.894Z,74.10
2023-03-02T20:59:54.222Z,78.80
2023-03-02T21:04:24.099Z,82.70
2023-03-02T21:08:45.446Z,92.10
2023-03-02T21:22:09.070Z,90.00
2023-03-02T21:26:31.239Z,68.90
2023-03-02T21:56:50.045Z,91.60
2023-03-02T22:01:19.543Z,66.20
2023-03-02T22:05:49.139Z,93.30
2023-03-02T22:10:18.559Z,74.90
2023-03-02T22:14:34.711Z,89.20
2023-03-02T22:19:05.078Z,110.90
2023-03-02T22:45:36.097Z,70.20
2023-03-02T22:49:56.508Z,89.30
2023-03-02T23:29:19.688Z,74.00
2023-03-02T23:33:49.623Z,89.30
2023-03-02T23:37:56.382Z,57.20
2023-03-02T23:42:20.275Z,42.30
